sensor_id;sensor_type;location;lat;lon;timestamp;P1;durP1;ratioP1;P2;durP2;ratioP2
8536;SDS011;4306;50.210;10.628;2023-06-22T00:00:03;9.18;;;8.10;;
8536;SDS011;4306;50.210;10.628;2023-06-22T00:02:36;11.32;;;8.77;;
8536;SDS011;4306;50.210;10.628;2023-06-22T00:05:02;10.88;;;8.82;;
8536;SDS011;4306;50.210;10.628;2023-06-22T00:07:30;13.32;;;9.55;;
8536;SDS011;4306;50.210;10.628;2023-06-22T00:09:56;14.60;;;9.60;;
8536;SDS011;4306;50.210;10.628;2023-06-22T00:12:23;12.38;;;9.35;;
8536;SDS011;4306;50.210;10.628;2023-06-22T00:14:51;9.88;;;8.30;;
8536;SDS011;4306;50.210;10.628;2023-06-22T00:17:18;11.38;;;8.30;;
8536;SDS011;4306;50.210;10.628;2023-06-22T00:19:46;13.68;;;8.57;;
8536;SDS011;4306;50.210;10.628;2023-06-22T00:22:18;9.60;;;8.00;;
8536;SDS011;4306;50.210;10.628;2023-06-22T00:24:53;11.35;;;8.68;;
8536;SDS011;4306;50.210;10.628;2023-06-22T00:27:20;10.50;;;8.23;;
8536;SDS011;4306;50.210;10.628;2023-06-22T00:29:47;9.77;;;7.55;;
8536;SDS011;4306;50.210;10.628;2023-06-22T00:32:15;9.80;;;7.88;;
8536;SDS011;4306;50.210;10.628;2023-06-22T00:34:43;10.15;;;8.40;;
8536;SDS011;4306;50.210;10.628;2023-06-22T00:37:10;16.25;;;8.63;;
8536;SDS011;4306;50.210;10.628;2023-06-22T00:39:37;11.45;;;7.90;;
8536;SDS011;4306;50.210;10.628;2023-06-22T00:42:04;11.13;;;8.05;;
8536;SDS011;4306;50.210;10.628;2023-06-22T00:44:31;14.52;;;8.55;;
8536;SDS011;4306;50.210;10.628;2023-06-22T00:46:58;12.05;;;8.98;;
8536;SDS011;4306;50.210;10.628;2023-06-22T00:49:27;13.85;;;8.82;;
8536;SDS011;4306;50.210;10.628;2023-06-22T00:51:55;11.00;;;8.60;;
8536;SDS011;4306;50.210;10.628;2023-06-22T00:54:23;10.60;;;9.07;;
8536;SDS011;4306;50.210;10.628;2023-06-22T00:56:51;11.57;;;9.40;;
8536;SDS011;4306;50.210;10.628;2023-06-22T00:59:19;13.80;;;9.18;;
8536;SDS011;4306;50.210;10.628;2023-06-22T01:01:46;11.98;;;8.05;;
8536;SDS011;4306;50.210;10.628;2023-06-22T01:04:13;12.73;;;8.57;;
8536;SDS011;4306;50.210;10.628;2023-06-22T01:06:44;10.65;;;8.63;;
8536;SDS011;4306;50.210;10.628;2023-06-22T01:09:19;10.15;;;8.07;;
8536;SDS011;4306;50.210;10.628;2023-06-22T01:11:54;11.57;;;8.80;;
8536;SDS011;4306;50.210;10.628;2023-06-22T01:14:27;9.82;;;8.77;;
8536;SDS011;4306;50.210;10.628;2023-06-22T01:16:58;13.40;;;9.13;;
8536;SDS011;4306;50.210;10.628;2023-06-22T01:19:29;12.55;;;8.65;;
8536;SDS011;4306;50.210;10.628;2023-06-22T01:22:08;10.90;;;8.40;;
8536;SDS011;4306;50.210;10.628;2023-06-22T01:24:40;12.18;;;8.60;;
8536;SDS011;4306;50.210;10.628;2023-06-22T01:27:16;11.32;;;8.70;;
8536;SDS011;4306;50.210;10.628;2023-06-22T01:29:56;10.20;;;8.80;;
8536;SDS011;4306;50.210;10.628;2023-06-22T01:32:26;12.90;;;9.00;;
8536;SDS011;4306;50.210;10.628;2023-06-22T01:34:56;10.02;;;8.68;;
8536;SDS011;4306;50.210;10.628;2023-06-22T01:37:24;11.13;;;9.52;;
8536;SDS011;4306;50.210;10.628;2023-06-22T01:39:51;14.05;;;10.77;;
8536;SDS011;4306;50.210;10.628;2023-06-22T01:42:20;14.77;;;9.93;;
8536;SDS011;4306;50.210;10.628;2023-06-22T01:44:47;11.63;;;9.98;;
8536;SDS011;4306;50.210;10.628;2023-06-22T01:47:15;12.00;;;9.30;;
8536;SDS011;4306;50.210;10.628;2023-06-22T01:49:43;11.65;;;9.50;;
8536;SDS011;4306;50.210;10.628;2023-06-22T01:52:10;10.73;;;8.95;;
8536;SDS011;4306;50.210;10.628;2023-06-22T01:54:38;12.80;;;9.68;;
8536;SDS011;4306;50.210;10.628;2023-06-22T01:57:05;11.07;;;9.63;;
8536;SDS011;4306;50.210;10.628;2023-06-22T01:59:34;11.25;;;9.27;;
8536;SDS011;4306;50.210;10.628;2023-06-22T02:02:06;11.38;;;10.13;;
8536;SDS011;4306;50.210;10.628;2023-06-22T02:04:37;16.08;;;9.98;;
8536;SDS011;4306;50.210;10.628;2023-06-22T02:07:11;11.30;;;9.95;;
8536;SDS011;4306;50.210;10.628;2023-06-22T02:09:42;14.30;;;10.68;;
8536;SDS011;4306;50.210;10.628;2023-06-22T02:12:11;13.40;;;10.55;;
8536;SDS011;4306;50.210;10.628;2023-06-22T02:14:39;12.75;;;10.60;;
8536;SDS011;4306;50.210;10.628;2023-06-22T02:17:08;13.13;;;10.18;;
8536;SDS011;4306;50.210;10.628;2023-06-22T02:19:37;11.45;;;9.77;;
8536;SDS011;4306;50.210;10.628;2023-06-22T02:22:04;12.30;;;10.93;;
8536;SDS011;4306;50.210;10.628;2023-06-22T02:24:31;13.15;;;10.70;;
8536;SDS011;4306;50.210;10.628;2023-06-22T02:26:58;12.68;;;8.50;;
8536;SDS011;4306;50.210;10.628;2023-06-22T02:29:26;11.45;;;9.30;;
8536;SDS011;4306;50.210;10.628;2023-06-22T02:31:53;10.70;;;8.98;;
8536;SDS011;4306;50.210;10.628;2023-06-22T02:34:20;14.52;;;9.38;;
8536;SDS011;4306;50.210;10.628;2023-06-22T02:36:50;10.27;;;8.63;;
8536;SDS011;4306;50.210;10.628;2023-06-22T02:39:18;12.23;;;9.57;;
8536;SDS011;4306;50.210;10.628;2023-06-22T02:41:47;12.05;;;10.13;;
8536;SDS011;4306;50.210;10.628;2023-06-22T02:44:14;12.40;;;10.25;;
8536;SDS011;4306;50.210;10.628;2023-06-22T02:46:41;13.45;;;11.50;;
8536;SDS011;4306;50.210;10.628;2023-06-22T02:49:08;14.93;;;11.00;;
8536;SDS011;4306;50.210;10.628;2023-06-22T02:51:39;11.98;;;10.75;;
8536;SDS011;4306;50.210;10.628;2023-06-22T02:54:09;12.82;;;11.35;;
8536;SDS011;4306;50.210;10.628;2023-06-22T02:56:36;15.82;;;11.90;;
8536;SDS011;4306;50.210;10.628;2023-06-22T02:59:05;14.63;;;11.43;;
8536;SDS011;4306;50.210;10.628;2023-06-22T03:01:32;12.30;;;11.10;;
8536;SDS011;4306;50.210;10.628;2023-06-22T03:04:03;13.63;;;11.75;;
8536;SDS011;4306;50.210;10.628;2023-06-22T03:06:30;15.00;;;12.05;;
8536;SDS011;4306;50.210;10.628;2023-06-22T03:08:58;15.52;;;12.23;;
8536;SDS011;4306;50.210;10.628;2023-06-22T03:11:28;13.25;;;11.07;;
8536;SDS011;4306;50.210;10.628;2023-06-22T03:13:54;13.57;;;11.88;;
8536;SDS011;4306;50.210;10.628;2023-06-22T03:16:21;15.90;;;12.48;;
8536;SDS011;4306;50.210;10.628;2023-06-22T03:18:48;14.85;;;12.60;;
8536;SDS011;4306;50.210;10.628;2023-06-22T03:21:15;15.32;;;12.98;;
8536;SDS011;4306;50.210;10.628;2023-06-22T03:23:42;16.17;;;12.93;;
8536;SDS011;4306;50.210;10.628;2023-06-22T03:26:09;14.20;;;12.40;;
8536;SDS011;4306;50.210;10.628;2023-06-22T03:28:37;17.08;;;12.43;;
8536;SDS011;4306;50.210;10.628;2023-06-22T03:31:04;15.30;;;13.07;;
8536;SDS011;4306;50.210;10.628;2023-06-22T03:33:32;18.73;;;13.32;;
8536;SDS011;4306;50.210;10.628;2023-06-22T03:35:59;14.35;;;12.35;;
8536;SDS011;4306;50.210;10.628;2023-06-22T03:38:26;16.60;;;13.32;;
8536;SDS011;4306;50.210;10.628;2023-06-22T03:40:53;16.13;;;13.23;;
8536;SDS011;4306;50.210;10.628;2023-06-22T03:43:20;15.15;;;13.38;;
8536;SDS011;4306;50.210;10.628;2023-06-22T03:45:48;17.23;;;13.80;;
8536;SDS011;4306;50.210;10.628;2023-06-22T03:48:15;16.67;;;13.82;;
8536;SDS011;4306;50.210;10.628;2023-06-22T03:50:42;16.88;;;13.57;;
8536;SDS011;4306;50.210;10.628;2023-06-22T03:53:09;15.18;;;13.57;;
8536;SDS011;4306;50.210;10.628;2023-06-22T03:55:36;16.58;;;13.60;;
8536;SDS011;4306;50.210;10.628;2023-06-22T03:58:06;15.25;;;12.60;;
8536;SDS011;4306;50.210;10.628;2023-06-22T04:00:34;14.50;;;12.98;;
8536;SDS011;4306;50.210;10.628;2023-06-22T04:03:02;14.18;;;12.68;;
8536;SDS011;4306;50.210;10.628;2023-06-22T04:05:29;15.65;;;12.45;;
8536;SDS011;4306;50.210;10.628;2023-06-22T04:07:56;18.88;;;13.88;;
8536;SDS011;4306;50.210;10.628;2023-06-22T04:10:23;14.80;;;13.20;;
8536;SDS011;4306;50.210;10.628;2023-06-22T04:12:50;14.77;;;13.20;;
8536;SDS011;4306;50.210;10.628;2023-06-22T04:15:16;15.55;;;13.73;;
8536;SDS011;4306;50.210;10.628;2023-06-22T04:17:43;20.63;;;13.48;;
8536;SDS011;4306;50.210;10.628;2023-06-22T04:20:12;16.02;;;12.35;;
8536;SDS011;4306;50.210;10.628;2023-06-22T04:22:38;14.13;;;12.60;;
8536;SDS011;4306;50.210;10.628;2023-06-22T04:25:05;16.33;;;13.30;;
8536;SDS011;4306;50.210;10.628;2023-06-22T04:27:33;15.02;;;12.60;;
8536;SDS011;4306;50.210;10.628;2023-06-22T04:30:02;15.02;;;13.48;;
8536;SDS011;4306;50.210;10.628;2023-06-22T04:32:29;13.48;;;12.00;;
8536;SDS011;4306;50.210;10.628;2023-06-22T04:34:56;13.98;;;12.55;;
8536;SDS011;4306;50.210;10.628;2023-06-22T04:37:26;14.80;;;12.27;;
8536;SDS011;4306;50.210;10.628;2023-06-22T04:39:53;15.52;;;12.25;;
8536;SDS011;4306;50.210;10.628;2023-06-22T04:42:20;14.13;;;12.73;;
8536;SDS011;4306;50.210;10.628;2023-06-22T04:44:47;14.45;;;12.00;;
8536;SDS011;4306;50.210;10.628;2023-06-22T04:47:14;14.60;;;11.88;;
8536;SDS011;4306;50.210;10.628;2023-06-22T04:49:41;13.65;;;11.43;;
8536;SDS011;4306;50.210;10.628;2023-06-22T04:52:09;14.35;;;11.95;;
8536;SDS011;4306;50.210;10.628;2023-06-22T04:54:39;13.48;;;11.45;;
8536;SDS011;4306;50.210;10.628;2023-06-22T04:57:13;13.80;;;11.93;;
8536;SDS011;4306;50.210;10.628;2023-06-22T04:59:40;12.23;;;10.75;;
8536;SDS011;4306;50.210;10.628;2023-06-22T05:02:07;15.00;;;12.10;;
8536;SDS011;4306;50.210;10.628;2023-06-22T05:04:35;13.88;;;11.73;;
8536;SDS011;4306;50.210;10.628;2023-06-22T05:07:03;13.75;;;11.30;;
8536;SDS011;4306;50.210;10.628;2023-06-22T05:09:31;12.10;;;10.90;;
8536;SDS011;4306;50.210;10.628;2023-06-22T05:12:00;12.43;;;11.23;;
8536;SDS011;4306;50.210;10.628;2023-06-22T05:14:28;14.63;;;12.10;;
8536;SDS011;4306;50.210;10.628;2023-06-22T05:16:54;12.35;;;11.05;;
8536;SDS011;4306;50.210;10.628;2023-06-22T05:19:23;13.00;;;11.70;;
8536;SDS011;4306;50.210;10.628;2023-06-22T05:21:50;14.55;;;11.25;;
8536;SDS011;4306;50.210;10.628;2023-06-22T05:24:17;13.50;;;11.80;;
8536;SDS011;4306;50.210;10.628;2023-06-22T05:26:44;13.95;;;11.32;;
8536;SDS011;4306;50.210;10.628;2023-06-22T05:29:12;12.07;;;10.77;;
8536;SDS011;4306;50.210;10.628;2023-06-22T05:31:39;11.57;;;10.27;;
8536;SDS011;4306;50.210;10.628;2023-06-22T05:34:06;12.65;;;10.50;;
8536;SDS011;4306;50.210;10.628;2023-06-22T05:36:33;12.93;;;10.50;;
8536;SDS011;4306;50.210;10.628;2023-06-22T05:39:00;11.77;;;10.20;;
8536;SDS011;4306;50.210;10.628;2023-06-22T05:41:37;12.23;;;10.95;;
8536;SDS011;4306;50.210;10.628;2023-06-22T05:44:04;12.30;;;10.20;;
8536;SDS011;4306;50.210;10.628;2023-06-22T05:46:32;12.95;;;11.30;;
8536;SDS011;4306;50.210;10.628;2023-06-22T05:48:59;11.85;;;10.65;;
8536;SDS011;4306;50.210;10.628;2023-06-22T05:51:26;11.10;;;10.00;;
8536;SDS011;4306;50.210;10.628;2023-06-22T05:53:53;11.63;;;10.43;;
8536;SDS011;4306;50.210;10.628;2023-06-22T05:56:20;11.45;;;10.27;;
8536;SDS011;4306;50.210;10.628;2023-06-22T05:58:46;12.27;;;10.32;;
8536;SDS011;4306;50.210;10.628;2023-06-22T06:01:13;11.02;;;9.55;;
8536;SDS011;4306;50.210;10.628;2023-06-22T06:03:42;11.32;;;9.77;;
8536;SDS011;4306;50.210;10.628;2023-06-22T06:06:09;11.55;;;10.35;;
8536;SDS011;4306;50.210;10.628;2023-06-22T06:08:36;11.20;;;10.10;;
8536;SDS011;4306;50.210;10.628;2023-06-22T06:11:03;10.18;;;9.13;;
8536;SDS011;4306;50.210;10.628;2023-06-22T06:13:30;10.88;;;9.50;;
8536;SDS011;4306;50.210;10.628;2023-06-22T06:15:57;10.68;;;9.60;;
8536;SDS011;4306;50.210;10.628;2023-06-22T06:18:24;10.68;;;9.68;;
8536;SDS011;4306;50.210;10.628;2023-06-22T06:20:52;10.45;;;9.45;;
8536;SDS011;4306;50.210;10.628;2023-06-22T06:23:19;9.70;;;8.70;;
8536;SDS011;4306;50.210;10.628;2023-06-22T06:25:46;9.95;;;8.95;;
8536;SDS011;4306;50.210;10.628;2023-06-22T06:28:13;10.07;;;8.75;;
8536;SDS011;4306;50.210;10.628;2023-06-22T06:30:40;10.55;;;8.95;;
8536;SDS011;4306;50.210;10.628;2023-06-22T06:33:07;11.57;;;9.10;;
8536;SDS011;4306;50.210;10.628;2023-06-22T06:35:34;9.65;;;8.68;;
8536;SDS011;4306;50.210;10.628;2023-06-22T06:38:04;9.73;;;8.73;;
8536;SDS011;4306;50.210;10.628;2023-06-22T06:40:30;9.07;;;8.18;;
8536;SDS011;4306;50.210;10.628;2023-06-22T06:42:57;10.45;;;9.18;;
8536;SDS011;4306;50.210;10.628;2023-06-22T06:45:24;11.25;;;9.07;;
8536;SDS011;4306;50.210;10.628;2023-06-22T06:47:53;10.30;;;8.55;;
8536;SDS011;4306;50.210;10.628;2023-06-22T06:50:21;12.05;;;9.52;;
8536;SDS011;4306;50.210;10.628;2023-06-22T06:52:48;12.77;;;10.50;;
8536;SDS011;4306;50.210;10.628;2023-06-22T06:55:17;9.90;;;8.90;;
8536;SDS011;4306;50.210;10.628;2023-06-22T06:57:44;9.90;;;8.70;;
8536;SDS011;4306;50.210;10.628;2023-06-22T07:00:13;9.85;;;8.82;;
8536;SDS011;4306;50.210;10.628;2023-06-22T07:02:42;11.30;;;9.30;;
8536;SDS011;4306;50.210;10.628;2023-06-22T07:05:09;9.57;;;8.45;;
8536;SDS011;4306;50.210;10.628;2023-06-22T07:07:36;10.02;;;8.65;;
8536;SDS011;4306;50.210;10.628;2023-06-22T07:10:04;9.93;;;8.50;;
8536;SDS011;4306;50.210;10.628;2023-06-22T07:12:33;11.70;;;8.15;;
8536;SDS011;4306;50.210;10.628;2023-06-22T07:15:03;8.30;;;7.50;;
8536;SDS011;4306;50.210;10.628;2023-06-22T07:17:33;11.70;;;8.63;;
8536;SDS011;4306;50.210;10.628;2023-06-22T07:20:00;10.55;;;8.50;;
8536;SDS011;4306;50.210;10.628;2023-06-22T07:22:29;10.60;;;8.45;;
8536;SDS011;4306;50.210;10.628;2023-06-22T07:24:55;9.93;;;8.93;;
8536;SDS011;4306;50.210;10.628;2023-06-22T07:27:22;10.30;;;8.27;;
8536;SDS011;4306;50.210;10.628;2023-06-22T07:29:51;9.52;;;7.43;;
8536;SDS011;4306;50.210;10.628;2023-06-22T07:32:18;11.05;;;7.97;;
8536;SDS011;4306;50.210;10.628;2023-06-22T07:34:44;9.07;;;8.10;;
8536;SDS011;4306;50.210;10.628;2023-06-22T07:37:11;8.90;;;8.00;;
8536;SDS011;4306;50.210;10.628;2023-06-22T07:39:38;9.18;;;8.20;;
8536;SDS011;4306;50.210;10.628;2023-06-22T07:42:05;8.70;;;7.80;;
8536;SDS011;4306;50.210;10.628;2023-06-22T07:44:32;8.70;;;7.35;;
8536;SDS011;4306;50.210;10.628;2023-06-22T07:47:00;11.20;;;7.65;;
8536;SDS011;4306;50.210;10.628;2023-06-22T07:49:27;8.73;;;6.55;;
8536;SDS011;4306;50.210;10.628;2023-06-22T07:51:54;9.82;;;7.20;;
8536;SDS011;4306;50.210;10.628;2023-06-22T07:54:21;9.73;;;7.68;;
8536;SDS011;4306;50.210;10.628;2023-06-22T07:56:48;8.82;;;7.82;;
8536;SDS011;4306;50.210;10.628;2023-06-22T07:59:15;8.50;;;7.22;;
8536;SDS011;4306;50.210;10.628;2023-06-22T08:01:42;8.25;;;7.35;;
8536;SDS011;4306;50.210;10.628;2023-06-22T08:04:10;7.97;;;7.18;;
8536;SDS011;4306;50.210;10.628;2023-06-22T08:06:37;9.13;;;7.35;;
8536;SDS011;4306;50.210;10.628;2023-06-22T08:09:04;8.52;;;7.63;;
8536;SDS011;4306;50.210;10.628;2023-06-22T08:11:30;9.60;;;7.05;;
8536;SDS011;4306;50.210;10.628;2023-06-22T08:13:57;8.65;;;6.95;;
8536;SDS011;4306;50.210;10.628;2023-06-22T08:16:24;10.82;;;7.00;;
8536;SDS011;4306;50.210;10.628;2023-06-22T08:18:51;9.68;;;7.25;;
8536;SDS011;4306;50.210;10.628;2023-06-22T08:21:19;8.07;;;6.68;;
8536;SDS011;4306;50.210;10.628;2023-06-22T08:23:46;8.95;;;6.72;;
8536;SDS011;4306;50.210;10.628;2023-06-22T08:26:13;9.50;;;6.70;;
8536;SDS011;4306;50.210;10.628;2023-06-22T08:28:40;8.48;;;7.57;;
8536;SDS011;4306;50.210;10.628;2023-06-22T08:31:07;8.00;;;7.20;;
8536;SDS011;4306;50.210;10.628;2023-06-22T08:33:35;8.48;;;6.30;;
8536;SDS011;4306;50.210;10.628;2023-06-22T08:36:01;9.88;;;6.65;;
8536;SDS011;4306;50.210;10.628;2023-06-22T08:38:32;10.80;;;7.22;;
8536;SDS011;4306;50.210;10.628;2023-06-22T08:40:59;9.95;;;7.43;;
8536;SDS011;4306;50.210;10.628;2023-06-22T08:43:26;7.60;;;6.82;;
8536;SDS011;4306;50.210;10.628;2023-06-22T08:45:53;8.23;;;6.75;;
8536;SDS011;4306;50.210;10.628;2023-06-22T08:48:19;7.53;;;6.72;;
8536;SDS011;4306;50.210;10.628;2023-06-22T08:50:46;12.57;;;6.80;;
8536;SDS011;4306;50.210;10.628;2023-06-22T08:53:13;9.68;;;7.38;;
8536;SDS011;4306;50.210;10.628;2023-06-22T08:55:41;9.50;;;6.93;;
8536;SDS011;4306;50.210;10.628;2023-06-22T08:58:08;9.68;;;7.00;;
8536;SDS011;4306;50.210;10.628;2023-06-22T09:00:35;7.75;;;6.95;;
8536;SDS011;4306;50.210;10.628;2023-06-22T09:03:02;10.23;;;6.60;;
8536;SDS011;4306;50.210;10.628;2023-06-22T09:05:29;7.85;;;6.45;;
8536;SDS011;4306;50.210;10.628;2023-06-22T09:07:57;8.93;;;7.00;;
8536;SDS011;4306;50.210;10.628;2023-06-22T09:10:24;7.43;;;6.40;;
8536;SDS011;4306;50.210;10.628;2023-06-22T09:12:52;9.52;;;7.10;;
8536;SDS011;4306;50.210;10.628;2023-06-22T09:15:19;10.45;;;6.88;;
8536;SDS011;4306;50.210;10.628;2023-06-22T09:17:46;8.35;;;6.82;;
8536;SDS011;4306;50.210;10.628;2023-06-22T09:20:13;7.60;;;6.68;;
8536;SDS011;4306;50.210;10.628;2023-06-22T09:22:40;7.60;;;6.70;;
8536;SDS011;4306;50.210;10.628;2023-06-22T09:25:08;8.32;;;6.65;;
8536;SDS011;4306;50.210;10.628;2023-06-22T09:27:35;10.88;;;7.05;;
8536;SDS011;4306;50.210;10.628;2023-06-22T09:30:04;7.90;;;6.63;;
8536;SDS011;4306;50.210;10.628;2023-06-22T09:32:31;7.82;;;6.82;;
8536;SDS011;4306;50.210;10.628;2023-06-22T09:34:58;10.13;;;7.22;;
8536;SDS011;4306;50.210;10.628;2023-06-22T09:37:28;10.00;;;6.93;;
8536;SDS011;4306;50.210;10.628;2023-06-22T09:39:55;7.97;;;6.40;;
8536;SDS011;4306;50.210;10.628;2023-06-22T09:42:22;7.45;;;6.75;;
8536;SDS011;4306;50.210;10.628;2023-06-22T09:44:48;9.35;;;6.97;;
8536;SDS011;4306;50.210;10.628;2023-06-22T09:47:17;7.50;;;6.70;;
8536;SDS011;4306;50.210;10.628;2023-06-22T09:49:43;8.45;;;6.38;;
8536;SDS011;4306;50.210;10.628;2023-06-22T09:52:10;7.38;;;6.30;;
8536;SDS011;4306;50.210;10.628;2023-06-22T09:54:37;9.93;;;6.75;;
8536;SDS011;4306;50.210;10.628;2023-06-22T09:57:04;8.27;;;6.47;;
8536;SDS011;4306;50.210;10.628;2023-06-22T09:59:31;7.72;;;6.32;;
8536;SDS011;4306;50.210;10.628;2023-06-22T10:01:58;7.85;;;6.85;;
8536;SDS011;4306;50.210;10.628;2023-06-22T10:04:26;9.88;;;7.05;;
8536;SDS011;4306;50.210;10.628;2023-06-22T10:06:53;6.90;;;6.20;;
8536;SDS011;4306;50.210;10.628;2023-06-22T10:09:20;8.82;;;7.00;;
8536;SDS011;4306;50.210;10.628;2023-06-22T10:11:47;8.38;;;6.35;;
8536;SDS011;4306;50.210;10.628;2023-06-22T10:14:14;8.82;;;6.55;;
8536;SDS011;4306;50.210;10.628;2023-06-22T10:16:41;7.07;;;6.38;;
8536;SDS011;4306;50.210;10.628;2023-06-22T10:19:08;7.45;;;6.57;;
8536;SDS011;4306;50.210;10.628;2023-06-22T10:21:36;8.38;;;7.28;;
8536;SDS011;4306;50.210;10.628;2023-06-22T10:24:03;10.07;;;7.40;;
8536;SDS011;4306;50.210;10.628;2023-06-22T10:26:32;9.00;;;6.72;;
8536;SDS011;4306;50.210;10.628;2023-06-22T10:28:59;9.20;;;6.88;;
8536;SDS011;4306;50.210;10.628;2023-06-22T10:31:25;7.38;;;6.68;;
8536;SDS011;4306;50.210;10.628;2023-06-22T10:33:53;9.32;;;7.30;;
8536;SDS011;4306;50.210;10.628;2023-06-22T10:36:20;8.13;;;6.43;;
8536;SDS011;4306;50.210;10.628;2023-06-22T10:38:48;9.25;;;7.60;;
8536;SDS011;4306;50.210;10.628;2023-06-22T10:41:15;7.65;;;6.10;;
8536;SDS011;4306;50.210;10.628;2023-06-22T10:43:42;9.15;;;6.57;;
8536;SDS011;4306;50.210;10.628;2023-06-22T10:46:09;8.48;;;6.43;;
8536;SDS011;4306;50.210;10.628;2023-06-22T10:48:36;8.15;;;6.95;;
8536;SDS011;4306;50.210;10.628;2023-06-22T10:51:03;8.43;;;6.72;;
8536;SDS011;4306;50.210;10.628;2023-06-22T10:53:30;8.10;;;7.00;;
8536;SDS011;4306;50.210;10.628;2023-06-22T10:55:59;9.00;;;6.90;;
8536;SDS011;4306;50.210;10.628;2023-06-22T10:58:26;9.40;;;6.85;;
8536;SDS011;4306;50.210;10.628;2023-06-22T11:00:53;10.57;;;6.60;;
8536;SDS011;4306;50.210;10.628;2023-06-22T11:03:19;7.55;;;6.25;;
8536;SDS011;4306;50.210;10.628;2023-06-22T11:05:46;7.28;;;6.40;;
8536;SDS011;4306;50.210;10.628;2023-06-22T11:08:13;8.38;;;6.68;;
8536;SDS011;4306;50.210;10.628;2023-06-22T11:10:40;7.18;;;6.20;;
8536;SDS011;4306;50.210;10.628;2023-06-22T11:13:08;10.00;;;6.20;;
8536;SDS011;4306;50.210;10.628;2023-06-22T11:15:35;8.55;;;6.40;;
8536;SDS011;4306;50.210;10.628;2023-06-22T11:18:02;6.90;;;6.20;;
8536;SDS011;4306;50.210;10.628;2023-06-22T11:20:32;8.80;;;6.72;;
8536;SDS011;4306;50.210;10.628;2023-06-22T11:23:03;7.15;;;6.40;;
8536;SDS011;4306;50.210;10.628;2023-06-22T11:25:30;8.93;;;6.15;;
8536;SDS011;4306;50.210;10.628;2023-06-22T11:27:57;8.15;;;7.13;;
8536;SDS011;4306;50.210;10.628;2023-06-22T11:30:25;6.82;;;5.78;;
8536;SDS011;4306;50.210;10.628;2023-06-22T11:32:52;7.68;;;6.30;;
8536;SDS011;4306;50.210;10.628;2023-06-22T11:35:19;7.25;;;6.07;;
8536;SDS011;4306;50.210;10.628;2023-06-22T11:37:46;7.57;;;6.05;;
8536;SDS011;4306;50.210;10.628;2023-06-22T11:40:12;9.38;;;5.85;;
8536;SDS011;4306;50.210;10.628;2023-06-22T11:42:39;6.43;;;5.28;;
8536;SDS011;4306;50.210;10.628;2023-06-22T11:45:06;7.07;;;5.60;;
8536;SDS011;4306;50.210;10.628;2023-06-22T11:47:35;8.82;;;5.30;;
8536;SDS011;4306;50.210;10.628;2023-06-22T11:50:02;6.85;;;5.35;;
8536;SDS011;4306;50.210;10.628;2023-06-22T11:52:30;11.27;;;6.10;;
8536;SDS011;4306;50.210;10.628;2023-06-22T11:54:57;9.10;;;5.72;;
8536;SDS011;4306;50.210;10.628;2023-06-22T11:57:24;7.85;;;5.55;;
8536;SDS011;4306;50.210;10.628;2023-06-22T11:59:51;7.97;;;5.35;;
8536;SDS011;4306;50.210;10.628;2023-06-22T12:02:18;8.05;;;5.32;;
8536;SDS011;4306;50.210;10.628;2023-06-22T12:04:46;6.47;;;5.38;;
8536;SDS011;4306;50.210;10.628;2023-06-22T12:07:13;6.95;;;5.20;;
8536;SDS011;4306;50.210;10.628;2023-06-22T12:09:41;7.32;;;5.13;;
8536;SDS011;4306;50.210;10.628;2023-06-22T12:12:08;10.75;;;5.55;;
8536;SDS011;4306;50.210;10.628;2023-06-22T12:14:35;7.88;;;5.38;;
8536;SDS011;4306;50.210;10.628;2023-06-22T12:17:02;5.72;;;4.90;;
8536;SDS011;4306;50.210;10.628;2023-06-22T12:19:29;8.80;;;5.43;;
8536;SDS011;4306;50.210;10.628;2023-06-22T12:21:57;8.45;;;5.28;;
8536;SDS011;4306;50.210;10.628;2023-06-22T12:24:24;7.72;;;4.80;;
8536;SDS011;4306;50.210;10.628;2023-06-22T12:26:51;15.55;;;5.28;;
8536;SDS011;4306;50.210;10.628;2023-06-22T12:29:17;8.00;;;5.78;;
8536;SDS011;4306;50.210;10.628;2023-06-22T12:31:44;6.38;;;4.82;;
8536;SDS011;4306;50.210;10.628;2023-06-22T12:34:11;8.18;;;4.72;;
8536;SDS011;4306;50.210;10.628;2023-06-22T12:36:38;8.77;;;4.95;;
8536;SDS011;4306;50.210;10.628;2023-06-22T12:39:06;12.55;;;5.07;;
8536;SDS011;4306;50.210;10.628;2023-06-22T12:41:33;6.32;;;4.50;;
8536;SDS011;4306;50.210;10.628;2023-06-22T12:44:00;5.63;;;4.75;;
8536;SDS011;4306;50.210;10.628;2023-06-22T12:46:27;6.15;;;4.75;;
8536;SDS011;4306;50.210;10.628;2023-06-22T12:48:55;7.20;;;5.50;;
8536;SDS011;4306;50.210;10.628;2023-06-22T12:51:22;6.53;;;5.30;;
8536;SDS011;4306;50.210;10.628;2023-06-22T12:53:49;6.80;;;5.10;;
8536;SDS011;4306;50.210;10.628;2023-06-22T12:56:17;7.50;;;5.05;;
8536;SDS011;4306;50.210;10.628;2023-06-22T12:58:44;5.85;;;4.55;;
8536;SDS011;4306;50.210;10.628;2023-06-22T13:01:11;9.98;;;4.82;;
8536;SDS011;4306;50.210;10.628;2023-06-22T13:03:38;7.20;;;4.75;;
8536;SDS011;4306;50.210;10.628;2023-06-22T13:06:05;7.55;;;4.80;;
8536;SDS011;4306;50.210;10.628;2023-06-22T13:08:31;8.32;;;4.60;;
8536;SDS011;4306;50.210;10.628;2023-06-22T13:10:58;7.20;;;4.40;;
8536;SDS011;4306;50.210;10.628;2023-06-22T13:13:26;6.47;;;4.60;;
8536;SDS011;4306;50.210;10.628;2023-06-22T13:15:53;9.15;;;5.15;;
8536;SDS011;4306;50.210;10.628;2023-06-22T13:18:20;5.82;;;4.60;;
8536;SDS011;4306;50.210;10.628;2023-06-22T13:20:47;7.53;;;4.45;;
8536;SDS011;4306;50.210;10.628;2023-06-22T13:23:14;6.95;;;4.70;;
8536;SDS011;4306;50.210;10.628;2023-06-22T13:25:40;6.70;;;4.80;;
8536;SDS011;4306;50.210;10.628;2023-06-22T13:28:07;9.98;;;4.78;;
8536;SDS011;4306;50.210;10.628;2023-06-22T13:30:37;8.63;;;4.82;;
8536;SDS011;4306;50.210;10.628;2023-06-22T13:33:04;7.60;;;5.00;;
8536;SDS011;4306;50.210;10.628;2023-06-22T13:35:30;6.25;;;4.18;;
8536;SDS011;4306;50.210;10.628;2023-06-22T13:37:57;9.52;;;4.53;;
8536;SDS011;4306;50.210;10.628;2023-06-22T13:40:24;8.07;;;4.93;;
8536;SDS011;4306;50.210;10.628;2023-06-22T13:42:51;6.35;;;4.75;;
8536;SDS011;4306;50.210;10.628;2023-06-22T13:45:18;8.50;;;4.97;;
8536;SDS011;4306;50.210;10.628;2023-06-22T13:47:46;6.30;;;4.10;;
8536;SDS011;4306;50.210;10.628;2023-06-22T13:50:13;7.63;;;4.80;;
8536;SDS011;4306;50.210;10.628;2023-06-22T13:52:40;7.68;;;4.65;;
8536;SDS011;4306;50.210;10.628;2023-06-22T13:55:07;11.55;;;5.13;;
8536;SDS011;4306;50.210;10.628;2023-06-22T13:57:35;7.15;;;4.85;;
8536;SDS011;4306;50.210;10.628;2023-06-22T14:00:03;7.82;;;4.82;;
8536;SDS011;4306;50.210;10.628;2023-06-22T14:02:31;6.80;;;4.10;;
8536;SDS011;4306;50.210;10.628;2023-06-22T14:04:59;9.40;;;4.60;;
8536;SDS011;4306;50.210;10.628;2023-06-22T14:07:27;9.15;;;4.65;;
8536;SDS011;4306;50.210;10.628;2023-06-22T14:09:54;9.07;;;4.72;;
8536;SDS011;4306;50.210;10.628;2023-06-22T14:12:21;6.65;;;4.30;;
8536;SDS011;4306;50.210;10.628;2023-06-22T14:14:48;7.60;;;4.47;;
8536;SDS011;4306;50.210;10.628;2023-06-22T14:17:14;10.00;;;4.82;;
8536;SDS011;4306;50.210;10.628;2023-06-22T14:19:41;8.60;;;4.28;;
8536;SDS011;4306;50.210;10.628;2023-06-22T14:22:09;6.55;;;4.28;;
8536;SDS011;4306;50.210;10.628;2023-06-22T14:24:36;8.20;;;4.40;;
8536;SDS011;4306;50.210;10.628;2023-06-22T14:27:03;7.72;;;4.40;;
8536;SDS011;4306;50.210;10.628;2023-06-22T14:29:33;8.05;;;4.18;;
8536;SDS011;4306;50.210;10.628;2023-06-22T14:32:00;7.10;;;3.90;;
8536;SDS011;4306;50.210;10.628;2023-06-22T14:34:27;6.40;;;4.43;;
8536;SDS011;4306;50.210;10.628;2023-06-22T14:36:54;7.32;;;4.32;;
8536;SDS011;4306;50.210;10.628;2023-06-22T14:39:22;7.13;;;4.38;;
8536;SDS011;4306;50.210;10.628;2023-06-22T14:41:49;7.43;;;4.60;;
8536;SDS011;4306;50.210;10.628;2023-06-22T14:44:16;7.22;;;4.68;;
8536;SDS011;4306;50.210;10.628;2023-06-22T14:46:42;7.15;;;4.22;;
8536;SDS011;4306;50.210;10.628;2023-06-22T14:49:09;6.30;;;4.00;;
8536;SDS011;4306;50.210;10.628;2023-06-22T14:51:36;6.22;;;4.25;;